オウル の空港の天気 - METARとTAF

オウル空港 ( EFOU / OUL ) - フィンランド Oulunsalo
飛行場実況気象(Metar)
観測時間04/25 19:20 EEST (04/25 16:20 UTC)
風向・風速東 5m/s
視程10km以上
天気現象
少しの雲 雲底高度 1860m
全天の8割程度の雲 雲底高度 2130m
全天の8割程度の雲 雲底高度 2560m
気温7℃
湿度39%
気圧1006hPa
METAREFOU 251620Z AUTO 10009KT 9999 FEW061/// BKN070/// BKN084/// 07/M06 Q1006 R12/0/0095
過去の天気等 Google飛行場航空写真 Wunderground天気予報

過去48時間のMETAR

飛行場予報(TAF)
発表時間: 4/25 17:22 EEST (4/25 14:22 UTC)
予報対象時間: 25日18時 EEST ~ 26日18時 EEST
風向・風速東 4m/s
視程10km以上
全天の4割程度の雲 雲底高度 1,220m
25日18時 EEST ~ 25日20時 EEST に一時的に
風向・風速東 8m/s
26日8時 EEST ~ 26日10時 EEST に徐々に
風向・風速北北東 5m/s
視程6,000m
天気現象弱い雨雪
26日11時 EEST ~ 26日18時 EEST に一時的に
風向・風速北 8m/s 瞬間風速 13m/s
視程2,000m
天気現象雨雪
全天の8割程度の雲 雲底高度 400m
TAF EFOU 251422Z 2515/2615 10008KT 9999 SCT040
TEMPO 2515/2517 10015KT
BECMG 2605/2607 02010KT 6000 -RASN
TEMPO 2608/2615 36015G25KT 2000 RASN BKN013